Flugplatz Butzbach-Pfingstweide (UL)

Hier findest Du alle Informationen zum Flugplatz Butzbach-Pfingstweide (UL).

Informationen für Piloten zum Flugplatz Butzbach-Pfingstweide

Hier findest Du alle relevanten Informationen, die Du als Pilot benötigst, um Butzbach-Pfingstweide anzufliegen.

Flugplatz: Butzbach-Pfingstweide ICAO-Code: UL Flugplatz
Frequenz Turm: 129,500 Mhz GAFOR Gebiet: -
Frequenz Ground: 129,500 Mhz Mogas: nein
Platzrunde: N 2000 ft Landegebühr: -
Platzhöhe: Sunrise: 07:04 Uhr UTC
Pisten: 10/28 - 505 m x 15 m, Sunset: 16:12 Uhr UTC

Mitglieder, die in Butzbach-Pfingstweide fliegen

Flugwetter am Flugplatz Butzbach-Pfingstweide

Die METAR Information stammen aus EDDF (44.84 km entfernt).

METAR Code:
2023/01/14 23:20
EDDF 142320Z AUTO 18011KT 9999 -RA FEW007 BKN018 OVC022 10/09 Q1001 TEMPO RA BKN012

Flugschulen am Flugplatz Butzbach-Pfingstweide

Am Flugplatz Butzbach-Pfingstweide gibt es leider keine Flugschule.

Benachbarte Flugplätze und Flugschulen

Es gibt 22 weitere Flugplätze in einem Umkreis von 50 km um den Flugplatz Butzbach-Pfingstweide.

Jetzt anmelden

Passwort vergessen

Umfrage Archiv

Sendet Ihr ADS-B und/oder FLARM?

Ja
84.7 %
Nein
15.3 %
Stimmen: 274 | Diskussion
Anzeige: Roland Aircraft
Statistik Alle Mitglieder

Aktuell sind 79 Besucher online, davon 1 Mitglied und 78 Gäste.


Mitglieder online:
Chris_EDNC 

Anzeige: ULPower Aero Engines Anzeige: EasyVFR